Woody Richerson — WDF9621 — position and weather

sailwx.info

Track history (hours):
 
Tides and Currents Weather Stations Pressure Air Temp Water Temp Dewpoint Dewpoint Depression Visibility Wind Speed Wind Dir Waves Ship Positions

Woody Richerson

Owner: Florida Marine, LLC, Mandeville, LA. More information available from US FCC via Universal Licensing System and Coast Guard Vessel Documentation Center.

Last reported at 2016-Jul-24 15:33 UTC. Time now 2016-Jul-26 12:12 UTC.
Position N 29°57' W 090°14'.

Length 27 m.

Type: Other ship. MMSI: 367507070.

Date/timePositionNaut miles runAvg speedWind from/ knotsBaromVisibWave heightAir tempDewpointWater temp
2016-Jul-24 15:33N 29°57' W 090°14'4 3.8
2016-Jul-24 14:33N 29°57' W 090°09'4 4.4
2016-Jul-24 13:33N 29°55' W 090°05'3 3.3
2016-Jul-24 12:33N 29°58' W 090°02'1 0.9
2016-Jul-24 11:33N 29°58' W 090°02'2 1.6
2016-Jul-24 10:33N 29°60' W 090°01'0 0.0
2016-Jul-24 09:33N 29°60' W 090°01'0 0.0
2016-Jul-24 08:33N 29°60' W 090°01'0 0.0
2016-Jul-24 07:33N 29°60' W 090°01'0 0.0
2016-Jul-24 06:33N 29°60' W 090°01'0 0.0
2016-Jul-24 05:33N 29°60' W 090°01'0 0.0
2016-Jul-24 04:33N 29°60' W 090°01'0 0.0
2016-Jul-24 03:33N 29°60' W 090°01'0 0.0
2016-Jul-24 02:33N 29°60' W 090°01'0 0.0
2016-Jul-24 01:33N 29°60' W 090°01'0 0.0
2016-Jul-24 00:33N 29°60' W 090°01'0 0.0
2016-Jul-23 23:33N 29°60' W 090°01'0 0.0
2016-Jul-23 22:33N 29°60' W 090°01'0 0.0
2016-Jul-23 21:33N 29°60' W 090°01'0 0.0
2016-Jul-23 20:33N 29°60' W 090°01'2 2.4
2016-Jul-23 19:33N 30°00' W 089°59'  
2016-Jul-21 05:33N 30°00' W 089°57'3 3.4
2016-Jul-21 04:33N 29°60' W 090°00'2 2.4
2016-Jul-21 03:33N 29°58' W 090°02'1 0.6
2016-Jul-21 02:33N 29°57' W 090°01'0 0.2
2016-Jul-21 01:33N 29°57' W 090°02'0 0.3
2016-Jul-21 00:33N 29°57' W 090°01'2 1.7
2016-Jul-20 23:33N 29°56' W 089°60'0 0.1
2016-Jul-20 22:33N 29°56' W 089°60'0 0.1
2016-Jul-20 21:33N 29°56' W 089°60'0 0.0
2016-Jul-20 20:33N 29°56' W 089°60'0 0.0
2016-Jul-20 19:33N 29°56' W 089°60'0 0.0
2016-Jul-20 18:33N 29°56' W 089°60'0 0.0
2016-Jul-20 17:33N 29°56' W 089°60'0 0.0
2016-Jul-20 16:33N 29°56' W 089°60'1 0.6
2016-Jul-20 15:33N 29°56' W 090°00'1 0.6
2016-Jul-20 14:33N 29°56' W 089°60'0 0.0
2016-Jul-20 13:33N 29°56' W 089°60'0 0.1
2016-Jul-20 12:33N 29°56' W 089°60'0 0.1
2016-Jul-20 11:33N 29°56' W 089°60'0 0.0
2016-Jul-20 10:33N 29°56' W 089°60'3 3.2
2016-Jul-20 09:34N 29°56' W 090°03'1 0.8
2016-Jul-20 08:33N 29°55' W 090°04'1 1.3
2016-Jul-20 07:33N 29°57' W 090°03'3 2.7
2016-Jul-20 06:34N 29°56' W 090°00'0 0.0
2016-Jul-20 05:33N 29°56' W 090°00'1 0.6
2016-Jul-20 04:33N 29°56' W 089°60'4 3.9
2016-Jul-20 03:33N 29°55' W 090°04'6 5.9
2016-Jul-20 02:33N 29°56' W 090°11'  
2016-Jul-16 17:19N 29°57' W 090°14'3 4.4
2016-Jul-16 16:33N 29°57' W 090°10'5 5.2
2016-Jul-16 15:33N 29°55' W 090°04'3 2.6
2016-Jul-16 14:33N 29°58' W 090°02'1 0.8
2016-Jul-16 13:33N 29°58' W 090°02'0 0.3
2016-Jul-16 12:33N 29°58' W 090°01'1 1.4
2016-Jul-16 11:33N 29°60' W 090°01'0 0.0
2016-Jul-16 10:33N 29°60' W 090°01'0 0.0
2016-Jul-16 09:33N 29°60' W 090°01'0 0.0
2016-Jul-16 08:33N 29°60' W 090°01'0 0.0
2016-Jul-16 07:33N 29°60' W 090°01'0 0.0
2016-Jul-16 06:33N 29°60' W 090°01'0 0.0
2016-Jul-16 04:33N 29°60' W 090°01'0 0.0
2016-Jul-16 03:33N 29°60' W 090°01'0 0.0
2016-Jul-16 02:33N 29°60' W 090°01'0 0.0
2016-Jul-16 01:33N 29°60' W 090°01'0 0.0
2016-Jul-16 00:33N 29°60' W 090°01'0 0.0
2016-Jul-15 23:33N 29°60' W 090°01'0 0.0
2016-Jul-15 22:33N 29°60' W 090°01'0 0.0
2016-Jul-15 21:33N 29°60' W 090°01'0 0.0
2016-Jul-15 20:33N 29°60' W 090°01'0 0.0
2016-Jul-15 19:33N 29°60' W 090°01'0 0.0
2016-Jul-15 18:33N 29°60' W 090°01'0 0.0
2016-Jul-15 17:33N 29°60' W 090°01'0 0.0
2016-Jul-15 16:33N 29°60' W 090°01'0 0.0
2016-Jul-15 15:33N 29°60' W 090°01'0 0.0
2016-Jul-15 14:33N 29°60' W 090°01'0 0.0
2016-Jul-15 13:33N 29°60' W 090°01'0 0.0
2016-Jul-15 12:33N 29°60' W 090°01'  
Track history (hours):
 
Tides and Currents Weather Stations Pressure Air Temp Water Temp Dewpoint Dewpoint Depression Visibility Wind Speed Wind Dir Waves Ship Positions

Woody Richerson

Owner: Florida Marine, LLC, Mandeville, LA. More information available from US FCC via Universal Licensing System and Coast Guard Vessel Documentation Center.

Last reported at 2016-Jul-24 15:33 UTC. Time now 2016-Jul-26 12:12 UTC.
Position N 29°57' W 090°14'.

Length 27 m.

Type: Other ship. MMSI: 367507070.

Date/timePositionNaut miles runAvg speedWind from/ knotsBaromVisibWave heightAir tempDewpointWater temp
2016-Jul-24 15:33N 29°57' W 090°14'4 3.8
2016-Jul-24 14:33N 29°57' W 090°09'4 4.4
2016-Jul-24 13:33N 29°55' W 090°05'3 3.3
2016-Jul-24 12:33N 29°58' W 090°02'1 0.9
2016-Jul-24 11:33N 29°58' W 090°02'2 1.6
2016-Jul-24 10:33N 29°60' W 090°01'0 0.0
2016-Jul-24 09:33N 29°60' W 090°01'0 0.0
2016-Jul-24 08:33N 29°60' W 090°01'0 0.0
2016-Jul-24 07:33N 29°60' W 090°01'0 0.0
2016-Jul-24 06:33N 29°60' W 090°01'0 0.0
2016-Jul-24 05:33N 29°60' W 090°01'0 0.0
2016-Jul-24 04:33N 29°60' W 090°01'0 0.0
2016-Jul-24 03:33N 29°60' W 090°01'0 0.0
2016-Jul-24 02:33N 29°60' W 090°01'0 0.0
2016-Jul-24 01:33N 29°60' W 090°01'0 0.0
2016-Jul-24 00:33N 29°60' W 090°01'0 0.0
2016-Jul-23 23:33N 29°60' W 090°01'0 0.0
2016-Jul-23 22:33N 29°60' W 090°01'0 0.0
2016-Jul-23 21:33N 29°60' W 090°01'0 0.0
2016-Jul-23 20:33N 29°60' W 090°01'2 2.4
2016-Jul-23 19:33N 30°00' W 089°59'  
2016-Jul-21 05:33N 30°00' W 089°57'3 3.4
2016-Jul-21 04:33N 29°60' W 090°00'2 2.4
2016-Jul-21 03:33N 29°58' W 090°02'1 0.6
2016-Jul-21 02:33N 29°57' W 090°01'0 0.2
2016-Jul-21 01:33N 29°57' W 090°02'0 0.3
2016-Jul-21 00:33N 29°57' W 090°01'2 1.7
2016-Jul-20 23:33N 29°56' W 089°60'0 0.1
2016-Jul-20 22:33N 29°56' W 089°60'0 0.1
2016-Jul-20 21:33N 29°56' W 089°60'0 0.0
2016-Jul-20 20:33N 29°56' W 089°60'0 0.0
2016-Jul-20 19:33N 29°56' W 089°60'0 0.0
2016-Jul-20 18:33N 29°56' W 089°60'0 0.0
2016-Jul-20 17:33N 29°56' W 089°60'0 0.0
2016-Jul-20 16:33N 29°56' W 089°60'1 0.6
2016-Jul-20 15:33N 29°56' W 090°00'1 0.6
2016-Jul-20 14:33N 29°56' W 089°60'0 0.0
2016-Jul-20 13:33N 29°56' W 089°60'0 0.1
2016-Jul-20 12:33N 29°56' W 089°60'0 0.1
2016-Jul-20 11:33N 29°56' W 089°60'0 0.0
2016-Jul-20 10:33N 29°56' W 089°60'3 3.2
2016-Jul-20 09:34N 29°56' W 090°03'1 0.8
2016-Jul-20 08:33N 29°55' W 090°04'1 1.3
2016-Jul-20 07:33N 29°57' W 090°03'3 2.7
2016-Jul-20 06:34N 29°56' W 090°00'0 0.0
2016-Jul-20 05:33N 29°56' W 090°00'1 0.6
2016-Jul-20 04:33N 29°56' W 089°60'4 3.9
2016-Jul-20 03:33N 29°55' W 090°04'6 5.9
2016-Jul-20 02:33N 29°56' W 090°11'  
2016-Jul-16 17:19N 29°57' W 090°14'3 4.4
2016-Jul-16 16:33N 29°57' W 090°10'5 5.2
2016-Jul-16 15:33N 29°55' W 090°04'3 2.6
2016-Jul-16 14:33N 29°58' W 090°02'1 0.8
2016-Jul-16 13:33N 29°58' W 090°02'0 0.3
2016-Jul-16 12:33N 29°58' W 090°01'1 1.4
2016-Jul-16 11:33N 29°60' W 090°01'0 0.0
2016-Jul-16 10:33N 29°60' W 090°01'0 0.0
2016-Jul-16 09:33N 29°60' W 090°01'0 0.0
2016-Jul-16 08:33N 29°60' W 090°01'0 0.0
2016-Jul-16 07:33N 29°60' W 090°01'0 0.0
2016-Jul-16 06:33N 29°60' W 090°01'0 0.0
2016-Jul-16 04:33N 29°60' W 090°01'0 0.0
2016-Jul-16 03:33N 29°60' W 090°01'0 0.0
2016-Jul-16 02:33N 29°60' W 090°01'0 0.0
2016-Jul-16 01:33N 29°60' W 090°01'0 0.0
2016-Jul-16 00:33N 29°60' W 090°01'0 0.0
2016-Jul-15 23:33N 29°60' W 090°01'0 0.0
2016-Jul-15 22:33N 29°60' W 090°01'0 0.0
2016-Jul-15 21:33N 29°60' W 090°01'0 0.0
2016-Jul-15 20:33N 29°60' W 090°01'0 0.0
2016-Jul-15 19:33N 29°60' W 090°01'0 0.0
2016-Jul-15 18:33N 29°60' W 090°01'0 0.0
2016-Jul-15 17:33N 29°60' W 090°01'0 0.0
2016-Jul-15 16:33N 29°60' W 090°01'0 0.0
2016-Jul-15 15:33N 29°60' W 090°01'0 0.0
2016-Jul-15 14:33N 29°60' W 090°01'0 0.0
2016-Jul-15 13:33N 29°60' W 090°01'0 0.0
2016-Jul-15 12:33N 29°60' W 090°01'  

Dump ship's entire track history